Time;durP1;ratioP1;P1;durP2;ratioP2;P2;SDS_P1;SDS_P2;PMS_P1;PMS_P2;Temp;Humidity;BMP_temperature;BMP_pressure;BME280_temperature;BME280_humidity;BME280_pressure;Samples;Min_cycle;Max_cycle;Signal;HPM_P1;HPM_P2
2024/01/24 00:02:03;;;;;;;;;;;;;;;;;;5093274;28;939;-66
2024/01/24 00:04:29;;;;;;;;;;;;;;;;;;5093061;28;967;-65
2024/01/24 00:06:54;;;;;;;;;;;;;;;;;;5092843;28;777;-66
2024/01/24 00:09:19;;;;;;;;;;;;;;;;;;5093065;28;995;-65
2024/01/24 00:11:44;;;;;;;;;;;;;;;;;;5092581;28;880;-66
2024/01/24 00:14:10;;;;;;;;;;;;;;;;;;5093015;28;966;-66
2024/01/24 00:16:35;;;;;;;;;;;;;;;;;;5092693;28;1918;-65
2024/01/24 00:19:01;;;;;;;;;;;;;;;;;;5092874;28;904;-66
2024/01/24 00:21:26;;;;;;;;;;;;;;;;;;5093059;28;1181;-64
2024/01/24 00:23:51;;;;;;;;;;;;;;;;;;5092967;28;833;-60
2024/01/24 00:26:17;;;;;;;;;;;;;;;;;;5093371;28;829;-60
2024/01/24 00:28:42;;;;;;;;;;;;;;;;;;5093101;28;883;-60
2024/01/24 00:31:07;;;;;;;;;;;;;;;;;;5093096;28;971;-60
2024/01/24 00:33:33;;;;;;;;;;;;;;;;;;5093213;28;863;-60
2024/01/24 00:35:58;;;;;;;;;;;;;;;;;;5093347;28;848;-60
2024/01/24 00:38:23;;;;;;;;;;;;;;;;;;5075621;28;1972;-60
2024/01/24 00:40:48;;;;;;;;;;;;;;;;;;5093841;28;915;-60
2024/01/24 00:43:14;;;;;;;;;;;;;;;;;;5093205;28;820;-60
2024/01/24 00:45:39;;;;;;;;;;;;;;;;;;5093479;28;820;-61
2024/01/24 00:48:05;;;;;;;;;;;;;;;;;;5093149;28;824;-61
2024/01/24 00:50:30;;;;;;;;;;;;;;;;;;5093309;28;821;-61
2024/01/24 00:52:55;;;;;;;;;;;;;;;;;;5092865;28;840;-61
2024/01/24 00:55:21;;;;;;;;;;;;;;;;;;5092720;28;917;-61
2024/01/24 00:57:46;;;;;;;;;;;;;;;;;;5092693;28;1902;-60
2024/01/24 01:00:11;;;;;;;;;;;;;;;;;;5094513;28;876;-61
2024/01/24 01:02:37;;;;;;;;;;;;;;;;;;5096122;28;1055;-61
2024/01/24 01:05:04;;;;;;;;;;;;;;;;;;5096277;28;1142;-61
2024/01/24 01:07:29;;;;;;;;;;;;;;;;;;5096475;28;978;-61
2024/01/24 01:09:54;;;;;;;;;;;;;;;;;;5096571;28;868;-61
2024/01/24 01:12:19;;;;;;;;;;;;;;;;;;5095945;28;994;-61
2024/01/24 01:14:44;;;;;;;;;;;;;;;;;;5095843;28;983;-61
2024/01/24 01:17:10;;;;;;;;;;;;;;;;;;5096388;28;1910;-61
2024/01/24 01:19:35;;;;;;;;;;;;;;;;;;5095781;28;900;-61
2024/01/24 01:22:01;;;;;;;;;;;;;;;;;;5096103;28;920;-61
2024/01/24 01:24:26;;;;;;;;;;;;;;;;;;5095934;28;832;-61
2024/01/24 01:26:51;;;;;;;;;;;;;;;;;;5095720;28;828;-61
2024/01/24 01:29:16;;;;;;;;;;;;;;;;;;5095877;28;971;-62
2024/01/24 01:31:41;;;;;;;;;;;;;;;;;;5095950;28;991;-61
2024/01/24 01:34:07;;;;;;;;;;;;;;;;;;5095536;28;908;-61
2024/01/24 01:36:33;;;;;;;;;;;;;;;;;;5096511;28;1956;-60
2024/01/24 01:38:58;;;;;;;;;;;;;;;;;;5093260;28;1183;-61
2024/01/24 01:41:24;;;;;;;;;;;;;;;;;;5093213;28;1147;-60
2024/01/24 01:43:49;;;;;;;;;;;;;;;;;;5092611;28;1242;-60
2024/01/24 01:46:18;;;;;;;;;;;;;;;;;;5093072;28;1143;-60
2024/01/24 01:48:44;;;;;;;;;;;;;;;;;;5095807;28;844;-60
2024/01/24 01:51:09;;;;;;;;;;;;;;;;;;5095472;28;923;-60
2024/01/24 01:53:38;;;;;;;;;;;;;;;;;;5095388;28;908;-60
2024/01/24 01:56:05;;;;;;;;;;;;;;;;;;5103477;28;1909;-60
2024/01/24 01:58:30;;;;;;;;;;;;;;;;;;5115848;28;860;-59
2024/01/24 02:00:55;;;;;;;;;;;;;;;;;;5115873;28;990;-60
2024/01/24 02:03:21;;;;;;;;;;;;;;;;;;5115691;28;904;-60
2024/01/24 02:05:46;;;;;;;;;;;;;;;;;;5115922;27;927;-60
2024/01/24 02:08:12;;;;;;;;;;;;;;;;;;5116421;28;946;-62
2024/01/24 02:10:38;;;;;;;;;;;;;;;;;;5115969;27;899;-60
2024/01/24 02:13:05;;;;;;;;;;;;;;;;;;5116132;28;923;-60
2024/01/24 02:15:31;;;;;;;;;;;;;;;;;;5115834;28;827;-60
2024/01/24 02:17:56;;;;;;;;;;;;;;;;;;5115810;28;1893;-60
2024/01/24 02:20:22;;;;;;;;;;;;;;;;;;5115793;28;836;-60
2024/01/24 02:22:47;;;;;;;;;;;;;;;;;;5115982;28;1006;-60
2024/01/24 02:25:13;;;;;;;;;;;;;;;;;;5115861;28;816;-60
2024/01/24 02:27:38;;;;;;;;;;;;;;;;;;5116347;28;946;-60
2024/01/24 02:30:04;;;;;;;;;;;;;;;;;;5115827;28;843;-60
2024/01/24 02:32:30;;;;;;;;;;;;;;;;;;5115520;28;956;-60
2024/01/24 02:34:55;;;;;;;;;;;;;;;;;;5114860;28;1159;-60
2024/01/24 02:37:20;;;;;;;;;;;;;;;;;;5115373;28;1974;-60
2024/01/24 02:39:46;;;;;;;;;;;;;;;;;;5115038;27;897;-61
2024/01/24 02:42:12;;;;;;;;;;;;;;;;;;5114676;28;883;-60
2024/01/24 02:44:37;;;;;;;;;;;;;;;;;;5114723;28;1082;-61
2024/01/24 02:47:02;;;;;;;;;;;;;;;;;;5114505;28;1062;-61
2024/01/24 02:49:27;;;;;;;;;;;;;;;;;;5114728;28;906;-60
2024/01/24 02:51:52;;;;;;;;;;;;;;;;;;5114480;28;1013;-60
2024/01/24 02:54:18;;;;;;;;;;;;;;;;;;5114746;28;825;-60
2024/01/24 02:56:44;;;;;;;;;;;;;;;;;;5114035;27;1897;-60
2024/01/24 02:59:10;;;;;;;;;;;;;;;;;;5114639;28;820;-60
2024/01/24 03:01:35;;;;;;;;;;;;;;;;;;5114477;28;859;-60
2024/01/24 03:04:01;;;;;;;;;;;;;;;;;;5114871;28;895;-60
2024/01/24 03:06:26;;;;;;;;;;;;;;;;;;5114596;28;836;-60
2024/01/24 03:08:56;;;;;;;;;;;;;;;;;;5114626;28;789;-60
2024/01/24 03:11:22;;;;;;;;;;;;;;;;;;5114326;28;860;-60
2024/01/24 03:13:47;;;;;;;;;;;;;;;;;;5114398;28;1161;-60
2024/01/24 03:16:12;;;;;;;;;;;;;;;;;;5114072;28;1898;-60
2024/01/24 03:18:38;;;;;;;;;;;;;;;;;;5114560;28;856;-60
2024/01/24 03:21:09;;;;;;;;;;;;;;;;;;5114352;28;917;-61
2024/01/24 03:23:34;;;;;;;;;;;;;;;;;;5113843;28;837;-60
2024/01/24 03:25:59;;;;;;;;;;;;;;;;;;5114653;28;914;-60
2024/01/24 03:28:25;;;;;;;;;;;;;;;;;;5114271;28;975;-60
2024/01/24 03:30:50;;;;;;;;;;;;;;;;;;5114086;28;919;-61
2024/01/24 03:33:15;;;;;;;;;;;;;;;;;;5114354;28;895;-60
2024/01/24 03:35:41;;;;;;;;;;;;;;;;;;5114031;28;907;-61
2024/01/24 03:38:06;;;;;;;;;;;;;;;;;;5114158;28;1905;-60
2024/01/24 03:40:32;;;;;;;;;;;;;;;;;;5114470;28;988;-61
2024/01/24 03:42:58;;;;;;;;;;;;;;;;;;5113083;28;845;-61
2024/01/24 03:45:23;;;;;;;;;;;;;;;;;;5114182;27;841;-61
2024/01/24 03:47:48;;;;;;;;;;;;;;;;;;5114444;28;1002;-61
2024/01/24 03:50:14;;;;;;;;;;;;;;;;;;5114102;28;1029;-61
2024/01/24 03:52:39;;;;;;;;;;;;;;;;;;5115015;28;942;-61
2024/01/24 03:55:04;;;;;;;;;;;;;;;;;;5114027;28;990;-60
2024/01/24 03:57:29;;;;;;;;;;;;;;;;;;5114203;28;1910;-60
2024/01/24 03:59:55;;;;;;;;;;;;;;;;;;5114532;28;994;-60
2024/01/24 04:02:20;;;;;;;;;;;;;;;;;;5114148;28;1248;-60
2024/01/24 04:04:45;;;;;;;;;;;;;;;;;;5113767;28;998;-59
2024/01/24 04:07:10;;;;;;;;;;;;;;;;;;5113704;28;946;-61
2024/01/24 04:09:35;;;;;;;;;;;;;;;;;;5113807;28;958;-61
2024/01/24 04:12:01;;;;;;;;;;;;;;;;;;5114552;28;750;-61
2024/01/24 04:14:26;;;;;;;;;;;;;;;;;;5114041;28;832;-61
2024/01/24 04:16:51;;;;;;;;;;;;;;;;;;5113301;28;1901;-61
2024/01/24 04:19:16;;;;;;;;;;;;;;;;;;5113071;28;1153;-61
2024/01/24 04:21:44;;;;;;;;;;;;;;;;;;5113128;28;835;-61
2024/01/24 04:24:10;;;;;;;;;;;;;;;;;;5113089;28;844;-61
2024/01/24 04:26:35;;;;;;;;;;;;;;;;;;5113263;28;816;-61
2024/01/24 04:29:00;;;;;;;;;;;;;;;;;;5113087;28;982;-61
2024/01/24 04:31:26;;;;;;;;;;;;;;;;;;5113111;28;1072;-60
2024/01/24 04:33:51;;;;;;;;;;;;;;;;;;5113110;28;662;-60
2024/01/24 04:36:16;;;;;;;;;;;;;;;;;;5117028;28;1894;-61
2024/01/24 04:38:43;;;;;;;;;;;;;;;;;;5116934;28;1374;-61
2024/01/24 04:41:09;;;;;;;;;;;;;;;;;;5117273;28;732;-61
2024/01/24 04:43:34;;;;;;;;;;;;;;;;;;5117167;27;851;-61
2024/01/24 04:45:59;;;;;;;;;;;;;;;;;;5117313;28;1041;-61
2024/01/24 04:48:25;;;;;;;;;;;;;;;;;;5116847;28;1236;-61
2024/01/24 04:50:50;;;;;;;;;;;;;;;;;;5116959;28;911;-61
2024/01/24 04:53:15;;;;;;;;;;;;;;;;;;5116980;28;867;-61
2024/01/24 04:55:40;;;;;;;;;;;;;;;;;;5116888;28;913;-61
2024/01/24 04:58:06;;;;;;;;;;;;;;;;;;5116608;28;1977;-60
2024/01/24 05:00:31;;;;;;;;;;;;;;;;;;5117616;28;954;-61
2024/01/24 05:02:56;;;;;;;;;;;;;;;;;;5116766;28;879;-61
2024/01/24 05:05:21;;;;;;;;;;;;;;;;;;5117033;28;750;-61
2024/01/24 05:07:46;;;;;;;;;;;;;;;;;;5116707;27;1033;-61
2024/01/24 05:10:12;;;;;;;;;;;;;;;;;;5116973;28;812;-60
2024/01/24 05:12:37;;;;;;;;;;;;;;;;;;5117180;28;850;-60
2024/01/24 05:15:02;;;;;;;;;;;;;;;;;;5116726;28;1029;-61
2024/01/24 05:17:27;;;;;;;;;;;;;;;;;;5116708;28;1906;-61
2024/01/24 05:19:53;;;;;;;;;;;;;;;;;;5116463;28;990;-61
2024/01/24 05:22:18;;;;;;;;;;;;;;;;;;5116495;27;832;-61
2024/01/24 05:24:44;;;;;;;;;;;;;;;;;;5116476;28;1109;-60
2024/01/24 05:27:10;;;;;;;;;;;;;;;;;;5116625;28;871;-61
2024/01/24 05:29:35;;;;;;;;;;;;;;;;;;5116530;28;852;-61
2024/01/24 05:32:00;;;;;;;;;;;;;;;;;;5116870;28;1014;-60
2024/01/24 05:34:25;;;;;;;;;;;;;;;;;;5116575;28;998;-61
2024/01/24 05:36:53;;;;;;;;;;;;;;;;;;5116648;28;1901;-61
2024/01/24 05:39:18;;;;;;;;;;;;;;;;;;5115576;28;919;-61
2024/01/24 05:41:43;;;;;;;;;;;;;;;;;;5116985;28;750;-61
2024/01/24 05:44:09;;;;;;;;;;;;;;;;;;5115753;28;1431;-61
2024/01/24 05:46:34;;;;;;;;;;;;;;;;;;5115946;27;817;-61
2024/01/24 05:49:00;;;;;;;;;;;;;;;;;;5116551;28;1076;-61
2024/01/24 05:51:25;;;;;;;;;;;;;;;;;;5116355;28;836;-60
2024/01/24 05:53:51;;;;;;;;;;;;;;;;;;5113961;28;1422;-61
2024/01/24 05:56:16;;;;;;;;;;;;;;;;;;5112989;28;1974;-61
2024/01/24 05:58:41;;;;;;;;;;;;;;;;;;5113334;28;1214;-61
2024/01/24 06:01:06;;;;;;;;;;;;;;;;;;5113231;28;1202;-61
2024/01/24 06:03:33;;;;;;;;;;;;;;;;;;5113214;28;1055;-61
2024/01/24 06:05:58;;;;;;;;;;;;;;;;;;5111392;28;1209;-61
2024/01/24 06:08:23;;;;;;;;;;;;;;;;;;5110058;28;1166;-60
2024/01/24 06:10:49;;;;;;;;;;;;;;;;;;5092950;28;1206;-61
2024/01/24 06:13:15;;;;;;;;;;;;;;;;;;5092701;28;1136;-60
2024/01/24 06:15:40;;;;;;;;;;;;;;;;;;5093940;28;1437;-60
2024/01/24 06:18:06;;;;;;;;;;;;;;;;;;5092877;28;1957;-61
2024/01/24 06:20:31;;;;;;;;;;;;;;;;;;5093030;28;1120;-61
2024/01/24 06:22:56;;;;;;;;;;;;;;;;;;5092363;28;1077;-61
2024/01/24 06:25:21;;;;;;;;;;;;;;;;;;5094171;28;1143;-61
2024/01/24 06:27:46;;;;;;;;;;;;;;;;;;5094819;28;859;-61
2024/01/24 06:30:12;;;;;;;;;;;;;;;;;;5095028;28;844;-61
2024/01/24 06:32:37;;;;;;;;;;;;;;;;;;5094251;28;903;-61
2024/01/24 06:35:03;;;;;;;;;;;;;;;;;;5095056;28;876;-60
2024/01/24 06:37:28;;;;;;;;;;;;;;;;;;5094003;28;1901;-60
2024/01/24 06:39:53;;;;;;;;;;;;;;;;;;5093398;28;1089;-61
2024/01/24 06:42:19;;;;;;;;;;;;;;;;;;5094881;28;793;-60
2024/01/24 06:44:45;;;;;;;;;;;;;;;;;;5094571;28;833;-60
2024/01/24 06:47:10;;;;;;;;;;;;;;;;;;5094621;28;899;-61
2024/01/24 06:49:35;;;;;;;;;;;;;;;;;;5094558;28;828;-61
2024/01/24 06:52:00;;;;;;;;;;;;;;;;;;5094788;28;800;-60
2024/01/24 06:54:25;;;;;;;;;;;;;;;;;;5094609;28;1053;-61
2024/01/24 06:56:51;;;;;;;;;;;;;;;;;;5093620;28;1952;-61
2024/01/24 06:59:16;;;;;;;;;;;;;;;;;;5094294;28;1026;-60
2024/01/24 07:01:41;;;;;;;;;;;;;;;;;;5094340;28;954;-60
2024/01/24 07:04:06;;;;;;;;;;;;;;;;;;5094453;28;860;-60
2024/01/24 07:06:31;;;;;;;;;;;;;;;;;;5094561;28;1050;-60
2024/01/24 07:08:57;;;;;;;;;;;;;;;;;;5075968;28;1274;-60
2024/01/24 07:11:22;;;;;;;;;;;;;;;;;;5094628;28;887;-60
2024/01/24 07:13:47;;;;;;;;;;;;;;;;;;5094199;28;971;-60
2024/01/24 07:16:12;;;;;;;;;;;;;;;;;;5094231;28;991;-60
2024/01/24 07:18:37;;;;;;;;;;;;;;;;;;5093830;28;1971;-60
2024/01/24 07:21:06;;;;;;;;;;;;;;;;;;5094651;28;820;-60
2024/01/24 07:23:31;;;;;;;;;;;;;;;;;;5094074;28;886;-60
2024/01/24 07:25:56;;;;;;;;;;;;;;;;;;5075970;28;1309;-60
2024/01/24 07:28:22;;;;;;;;;;;;;;;;;;5093934;28;864;-60
2024/01/24 07:30:47;;;;;;;;;;;;;;;;;;5094237;28;864;-60
2024/01/24 07:33:13;;;;;;;;;;;;;;;;;;5094136;28;852;-65
2024/01/24 07:35:38;;;;;;;;;;;;;;;;;;5093859;28;880;-65
2024/01/24 07:38:03;;;;;;;;;;;;;;;;;;5093821;28;1902;-65
2024/01/24 07:40:28;;;;;;;;;;;;;;;;;;5093309;28;853;-64
2024/01/24 07:42:54;;;;;;;;;;;;;;;;;;5075707;28;1182;-66
2024/01/24 07:45:19;;;;;;;;;;;;;;;;;;5093778;28;808;-66
2024/01/24 07:47:44;;;;;;;;;;;;;;;;;;5092995;28;1216;-65
2024/01/24 07:50:11;;;;;;;;;;;;;;;;;;5093186;28;871;-65
2024/01/24 07:52:36;;;;;;;;;;;;;;;;;;5092896;28;907;-66
2024/01/24 07:55:01;;;;;;;;;;;;;;;;;;5093375;28;1014;-66
2024/01/24 07:57:27;;;;;;;;;;;;;;;;;;5092915;28;1976;-66
2024/01/24 07:59:52;;;;;;;;;;;;;;;;;;5093090;28;824;-66
2024/01/24 08:02:17;;;;;;;;;;;;;;;;;;5093031;28;902;-66
2024/01/24 08:04:43;;;;;;;;;;;;;;;;;;5092714;28;891;-65
2024/01/24 08:07:08;;;;;;;;;;;;;;;;;;5092484;28;907;-66
2024/01/24 08:09:34;;;;;;;;;;;;;;;;;;5093205;28;796;-66
2024/01/24 08:11:59;;;;;;;;;;;;;;;;;;5075703;28;1461;-60
2024/01/24 08:14:24;;;;;;;;;;;;;;;;;;5093189;28;777;-60
2024/01/24 08:17:03;;;;;;;;;;;;;;;;;;5093259;28;1917;-60
2024/01/24 08:19:29;;;;;;;;;;;;;;;;;;5092941;28;820;-60
2024/01/24 08:21:54;;;;;;;;;;;;;;;;;;5092928;28;829;-60
2024/01/24 08:24:19;;;;;;;;;;;;;;;;;;5093003;28;899;-59
2024/01/24 08:26:44;;;;;;;;;;;;;;;;;;5092389;28;852;-59
2024/01/24 08:29:10;;;;;;;;;;;;;;;;;;5092726;28;836;-59
2024/01/24 08:31:35;;;;;;;;;;;;;;;;;;5091815;28;959;-59
2024/01/24 08:34:00;;;;;;;;;;;;;;;;;;5092310;28;832;-59
2024/01/24 08:36:25;;;;;;;;;;;;;;;;;;5093281;28;1981;-60
2024/01/24 08:38:50;;;;;;;;;;;;;;;;;;5093585;28;1066;-59
2024/01/24 08:41:16;;;;;;;;;;;;;;;;;;5093310;28;1014;-59
2024/01/24 08:43:41;;;;;;;;;;;;;;;;;;5093224;28;892;-58
2024/01/24 08:46:06;;;;;;;;;;;;;;;;;;5092929;28;926;-59
2024/01/24 08:48:31;;;;;;;;;;;;;;;;;;5093078;28;1042;-59
2024/01/24 08:50:56;;;;;;;;;;;;;;;;;;5092871;28;891;-59
2024/01/24 08:53:22;;;;;;;;;;;;;;;;;;5092976;28;947;-59
2024/01/24 08:55:47;;;;;;;;;;;;;;;;;;5093584;28;909;-59
2024/01/24 08:58:12;;;;;;;;;;;;;;;;;;5092868;28;1967;-60
2024/01/24 09:00:37;;;;;;;;;;;;;;;;;;5093223;28;891;-59
2024/01/24 09:03:03;;;;;;;;;;;;;;;;;;5093480;28;879;-59
2024/01/24 09:05:28;;;;;;;;;;;;;;;;;;5093622;28;899;-59
2024/01/24 09:07:54;;;;;;;;;;;;;;;;;;5093171;28;853;-59
2024/01/24 09:10:19;;;;;;;;;;;;;;;;;;5091853;28;828;-59
2024/01/24 09:12:44;;;;;;;;;;;;;;;;;;5074962;28;1315;-59
2024/01/24 09:15:09;;;;;;;;;;;;;;;;;;5092881;28;856;-59
2024/01/24 09:17:35;;;;;;;;;;;;;;;;;;5093150;28;1914;-58
2024/01/24 09:20:00;;;;;;;;;;;;;;;;;;5093356;28;837;-60
2024/01/24 09:22:26;;;;;;;;;;;;;;;;;;5078266;28;1349;-60
2024/01/24 09:24:51;;;;;;;;;;;;;;;;;;5096326;28;1069;-60
2024/01/24 09:27:16;;;;;;;;;;;;;;;;;;5078295;28;931;-60
2024/01/24 09:29:41;;;;;;;;;;;;;;;;;;5096318;28;911;-60
2024/01/24 09:32:07;;;;;;;;;;;;;;;;;;5096037;28;808;-60
2024/01/24 09:34:32;;;;;;;;;;;;;;;;;;5096435;28;966;-60
2024/01/24 09:36:57;;;;;;;;;;;;;;;;;;5095736;28;1967;-60
2024/01/24 09:39:25;;;;;;;;;;;;;;;;;;5095703;28;876;-61
2024/01/24 09:41:51;;;;;;;;;;;;;;;;;;5096030;28;880;-59
2024/01/24 09:44:17;;;;;;;;;;;;;;;;;;5096182;28;1215;-59
2024/01/24 09:46:42;;;;;;;;;;;;;;;;;;5096287;28;797;-60
2024/01/24 09:49:08;;;;;;;;;;;;;;;;;;5095319;28;829;-60
2024/01/24 09:51:34;;;;;;;;;;;;;;;;;;5095741;28;851;-61
2024/01/24 09:54:05;;;;;;;;;;;;;;;;;;5077352;28;876;-59
2024/01/24 09:56:32;;;;;;;;;;;;;;;;;;5095477;28;1910;-59
2024/01/24 09:58:57;;;;;;;;;;;;;;;;;;5095971;28;995;-59
2024/01/24 10:01:24;;;;;;;;;;;;;;;;;;5095185;28;998;-59
2024/01/24 10:03:50;;;;;;;;;;;;;;;;;;5095213;28;875;-59
2024/01/24 10:06:15;;;;;;;;;;;;;;;;;;5095841;28;1006;-59
2024/01/24 10:08:41;;;;;;;;;;;;;;;;;;5094324;28;785;-60
2024/01/24 10:11:06;;;;;;;;;;;;;;;;;;5094385;28;899;-59
2024/01/24 10:13:31;;;;;;;;;;;;;;;;;;5095842;28;816;-60
2024/01/24 10:15:59;;;;;;;;;;;;;;;;;;5094934;28;983;-60
2024/01/24 10:18:24;;;;;;;;;;;;;;;;;;5094895;28;1976;-60
2024/01/24 10:20:49;;;;;;;;;;;;;;;;;;5076749;28;1792;-60
2024/01/24 10:23:15;;;;;;;;;;;;;;;;;;5094846;28;824;-60
2024/01/24 10:25:41;;;;;;;;;;;;;;;;;;5095347;28;781;-60
2024/01/24 10:28:13;;;;;;;;;;;;;;;;;;5095336;28;856;-60
2024/01/24 10:30:39;;;;;;;;;;;;;;;;;;5094832;28;829;-60
2024/01/24 10:33:06;;;;;;;;;;;;;;;;;;5094578;28;994;-60
2024/01/24 10:35:31;;;;;;;;;;;;;;;;;;5095238;28;832;-60
2024/01/24 10:37:56;;;;;;;;;;;;;;;;;;5094966;28;1913;-59
2024/01/24 10:40:22;;;;;;;;;;;;;;;;;;5077360;28;907;-59
2024/01/24 10:42:51;;;;;;;;;;;;;;;;;;5094763;28;804;-60
2024/01/24 10:45:17;;;;;;;;;;;;;;;;;;5095120;28;895;-59
2024/01/24 10:47:44;;;;;;;;;;;;;;;;;;5094414;28;888;-60
2024/01/24 10:50:09;;;;;;;;;;;;;;;;;;5094518;28;793;-60
2024/01/24 10:52:35;;;;;;;;;;;;;;;;;;5094926;28;958;-60
2024/01/24 10:55:04;;;;;;;;;;;;;;;;;;5094817;28;908;-59
2024/01/24 10:57:35;;;;;;;;;;;;;;;;;;5092708;28;1976;-60
2024/01/24 11:00:05;;;;;;;;;;;;;;;;;;5095161;28;856;-60
2024/01/24 11:02:31;;;;;;;;;;;;;;;;;;5093651;28;1317;-60
2024/01/24 11:04:57;;;;;;;;;;;;;;;;;;5092483;28;860;-60
2024/01/24 11:07:27;;;;;;;;;;;;;;;;;;5095153;28;865;-60
2024/01/24 11:09:53;;;;;;;;;;;;;;;;;;5094195;28;939;-61
2024/01/24 11:12:18;;;;;;;;;;;;;;;;;;5095081;28;829;-60
2024/01/24 11:14:44;;;;;;;;;;;;;;;;;;5076077;28;1295;-60
2024/01/24 11:17:10;;;;;;;;;;;;;;;;;;5094203;28;1883;-60
2024/01/24 11:19:35;;;;;;;;;;;;;;;;;;5094280;28;848;-60
2024/01/24 11:22:06;;;;;;;;;;;;;;;;;;5094203;28;813;-60
2024/01/24 11:24:50;;;;;;;;;;;;;;;;;;5093988;28;924;-60
2024/01/24 11:27:33;;;;;;;;;;;;;;;;;;5094248;28;824;-61
2024/01/24 11:30:15;;;;;;;;;;;;;;;;;;5094223;28;931;-60
2024/01/24 11:32:47;;;;;;;;;;;;;;;;;;5094223;28;939;-60
2024/01/24 11:35:30;;;;;;;;;;;;;;;;;;5094192;28;891;-60
2024/01/24 11:37:58;;;;;;;;;;;;;;;;;;5093743;28;1913;-60
2024/01/24 11:40:23;;;;;;;;;;;;;;;;;;5094266;28;907;-59
2024/01/24 11:42:55;;;;;;;;;;;;;;;;;;5094008;28;792;-64
2024/01/24 11:45:22;;;;;;;;;;;;;;;;;;5093232;28;836;-65
2024/01/24 11:47:48;;;;;;;;;;;;;;;;;;5093629;28;931;-65
2024/01/24 11:50:13;;;;;;;;;;;;;;;;;;5091993;28;797;-66
2024/01/24 11:52:39;;;;;;;;;;;;;;;;;;5093173;28;907;-66
2024/01/24 11:55:04;;;;;;;;;;;;;;;;;;5092287;28;1186;-66
2024/01/24 11:57:30;;;;;;;;;;;;;;;;;;5093165;28;1901;-65
2024/01/24 11:59:55;;;;;;;;;;;;;;;;;;5093141;28;859;-65
2024/01/24 12:02:21;;;;;;;;;;;;;;;;;;5092701;28;827;-64
2024/01/24 12:04:50;;;;;;;;;;;;;;;;;;5075197;28;971;-65
2024/01/24 12:07:15;;;;;;;;;;;;;;;;;;5093406;28;860;-66
2024/01/24 12:09:41;;;;;;;;;;;;;;;;;;5093182;28;987;-66
2024/01/24 12:12:07;;;;;;;;;;;;;;;;;;5091760;28;853;-66
2024/01/24 12:14:33;;;;;;;;;;;;;;;;;;5092884;28;1308;-65
2024/01/24 12:16:59;;;;;;;;;;;;;;;;;;5092685;28;1893;-66
2024/01/24 12:19:25;;;;;;;;;;;;;;;;;;5093202;28;864;-66
2024/01/24 12:21:51;;;;;;;;;;;;;;;;;;5092440;28;1086;-66
2024/01/24 12:24:17;;;;;;;;;;;;;;;;;;5093017;28;904;-66
2024/01/24 12:26:42;;;;;;;;;;;;;;;;;;5092899;28;1019;-66
2024/01/24 12:29:07;;;;;;;;;;;;;;;;;;5092865;28;904;-65
2024/01/24 12:31:33;;;;;;;;;;;;;;;;;;5092667;28;872;-66
2024/01/24 12:33:59;;;;;;;;;;;;;;;;;;5074288;28;1254;-66
2024/01/24 12:36:24;;;;;;;;;;;;;;;;;;5092829;28;995;-66
2024/01/24 12:38:54;;;;;;;;;;;;;;;;;;5092956;28;1965;-66
2024/01/24 12:41:19;;;;;;;;;;;;;;;;;;5092756;28;832;-66
2024/01/24 12:43:44;;;;;;;;;;;;;;;;;;5074419;28;1341;-64
2024/01/24 12:46:10;;;;;;;;;;;;;;;;;;5092495;28;895;-64
2024/01/24 12:48:36;;;;;;;;;;;;;;;;;;5093326;28;1042;-67
2024/01/24 12:51:02;;;;;;;;;;;;;;;;;;5091766;28;808;-65
2024/01/24 12:53:27;;;;;;;;;;;;;;;;;;5092638;28;1014;-64
2024/01/24 12:55:52;;;;;;;;;;;;;;;;;;5078232;28;1343;-65
2024/01/24 12:58:17;;;;;;;;;;;;;;;;;;5096676;28;1894;-65
2024/01/24 13:00:43;;;;;;;;;;;;;;;;;;5096341;28;904;-65
2024/01/24 13:03:08;;;;;;;;;;;;;;;;;;5095976;28;920;-64
2024/01/24 13:05:33;;;;;;;;;;;;;;;;;;5096996;28;998;-65
2024/01/24 13:07:58;;;;;;;;;;;;;;;;;;5096110;28;813;-65
2024/01/24 13:10:25;;;;;;;;;;;;;;;;;;5096503;28;845;-65
2024/01/24 13:12:51;;;;;;;;;;;;;;;;;;5096032;28;900;-64
2024/01/24 13:15:16;;;;;;;;;;;;;;;;;;5096575;28;697;-66
2024/01/24 13:17:42;;;;;;;;;;;;;;;;;;5094452;28;1957;-66
2024/01/24 13:20:09;;;;;;;;;;;;;;;;;;5108766;28;1179;-66
2024/01/24 13:22:35;;;;;;;;;;;;;;;;;;5116629;28;1261;-66
2024/01/24 13:25:00;;;;;;;;;;;;;;;;;;5115250;28;836;-65
2024/01/24 13:27:25;;;;;;;;;;;;;;;;;;5116206;28;864;-66
2024/01/24 13:29:51;;;;;;;;;;;;;;;;;;5116329;28;1002;-66
2024/01/24 13:32:16;;;;;;;;;;;;;;;;;;5116242;28;824;-66
2024/01/24 13:34:41;;;;;;;;;;;;;;;;;;5117003;28;832;-65
2024/01/24 13:37:07;;;;;;;;;;;;;;;;;;5116479;28;1893;-65
2024/01/24 13:39:32;;;;;;;;;;;;;;;;;;5116631;28;859;-65
2024/01/24 13:41:57;;;;;;;;;;;;;;;;;;5116472;28;918;-65
2024/01/24 13:44:22;;;;;;;;;;;;;;;;;;5116463;28;883;-65
2024/01/24 13:46:48;;;;;;;;;;;;;;;;;;5116342;28;906;-66
2024/01/24 13:49:13;;;;;;;;;;;;;;;;;;5116297;28;954;-65
2024/01/24 13:51:38;;;;;;;;;;;;;;;;;;5114541;28;963;-65
2024/01/24 13:54:05;;;;;;;;;;;;;;;;;;5116093;28;797;-65
2024/01/24 13:56:30;;;;;;;;;;;;;;;;;;5116295;28;955;-65
2024/01/24 13:58:55;;;;;;;;;;;;;;;;;;5115943;28;1940;-66
2024/01/24 14:01:20;;;;;;;;;;;;;;;;;;5115801;28;966;-65
2024/01/24 14:03:47;;;;;;;;;;;;;;;;;;5115533;28;938;-65
2024/01/24 14:06:13;;;;;;;;;;;;;;;;;;5115298;28;1109;-65
2024/01/24 14:08:38;;;;;;;;;;;;;;;;;;5115540;28;875;-65
2024/01/24 14:11:03;;;;;;;;;;;;;;;;;;5107361;28;1260;-66
2024/01/24 14:13:29;;;;;;;;;;;;;;;;;;5092438;28;1194;-66
2024/01/24 14:15:54;;;;;;;;;;;;;;;;;;5094384;28;1128;-59
2024/01/24 14:18:19;;;;;;;;;;;;;;;;;;5092354;28;1968;-60
2024/01/24 14:20:45;;;;;;;;;;;;;;;;;;5092127;28;1156;-59
2024/01/24 14:23:10;;;;;;;;;;;;;;;;;;5092477;28;1234;-60
2024/01/24 14:25:35;;;;;;;;;;;;;;;;;;5092745;28;1156;-60
2024/01/24 14:28:01;;;;;;;;;;;;;;;;;;5095162;28;991;-59
2024/01/24 14:30:26;;;;;;;;;;;;;;;;;;5093678;28;959;-60
2024/01/24 14:32:51;;;;;;;;;;;;;;;;;;5095203;28;824;-60
2024/01/24 14:35:17;;;;;;;;;;;;;;;;;;5095554;28;848;-60
2024/01/24 14:37:42;;;;;;;;;;;;;;;;;;5095093;28;1897;-60
2024/01/24 14:40:08;;;;;;;;;;;;;;;;;;5094939;28;1007;-60
2024/01/24 14:42:33;;;;;;;;;;;;;;;;;;5094564;28;887;-60
2024/01/24 14:44:58;;;;;;;;;;;;;;;;;;5094588;28;892;-60
2024/01/24 14:47:24;;;;;;;;;;;;;;;;;;5095053;28;1558;-60
2024/01/24 14:49:49;;;;;;;;;;;;;;;;;;5094866;28;983;-60
2024/01/24 14:52:14;;;;;;;;;;;;;;;;;;5094379;28;867;-60
2024/01/24 14:54:40;;;;;;;;;;;;;;;;;;5094636;28;1151;-60
2024/01/24 14:57:06;;;;;;;;;;;;;;;;;;5094629;28;1922;-60
2024/01/24 14:59:31;;;;;;;;;;;;;;;;;;5094413;28;887;-60
2024/01/24 15:01:56;;;;;;;;;;;;;;;;;;5076336;28;1351;-59
2024/01/24 15:04:21;;;;;;;;;;;;;;;;;;5094274;28;891;-60
2024/01/24 15:06:47;;;;;;;;;;;;;;;;;;5094270;28;832;-60
2024/01/24 15:09:13;;;;;;;;;;;;;;;;;;5094474;28;782;-60
2024/01/24 15:11:38;;;;;;;;;;;;;;;;;;5093548;28;1163;-60
2024/01/24 15:14:03;;;;;;;;;;;;;;;;;;5091073;28;1151;-60
2024/01/24 15:16:29;;;;;;;;;;;;;;;;;;5091056;28;1104;-60
2024/01/24 15:18:54;;;;;;;;;;;;;;;;;;5090970;28;1902;-60
2024/01/24 15:21:19;;;;;;;;;;;;;;;;;;5091251;28;1289;-61
2024/01/24 15:23:45;;;;;;;;;;;;;;;;;;5091955;28;1167;-61
2024/01/24 15:26:10;;;;;;;;;;;;;;;;;;5091834;28;1163;-60
2024/01/24 15:28:36;;;;;;;;;;;;;;;;;;5094030;28;804;-60
2024/01/24 15:31:01;;;;;;;;;;;;;;;;;;5094041;28;844;-61
2024/01/24 15:33:26;;;;;;;;;;;;;;;;;;5094045;28;970;-60
2024/01/24 15:35:52;;;;;;;;;;;;;;;;;;5094092;28;824;-61
2024/01/24 15:38:17;;;;;;;;;;;;;;;;;;5093905;28;1953;-59
2024/01/24 15:40:42;;;;;;;;;;;;;;;;;;5093614;28;829;-60
2024/01/24 15:43:09;;;;;;;;;;;;;;;;;;5092629;28;946;-60
2024/01/24 15:45:34;;;;;;;;;;;;;;;;;;5075049;28;1335;-60
2024/01/24 15:47:59;;;;;;;;;;;;;;;;;;5093870;28;884;-61
2024/01/24 15:50:25;;;;;;;;;;;;;;;;;;5094329;28;793;-62
2024/01/24 15:52:50;;;;;;;;;;;;;;;;;;5093413;28;943;-61
2024/01/24 15:55:15;;;;;;;;;;;;;;;;;;5094388;28;881;-62
2024/01/24 15:57:41;;;;;;;;;;;;;;;;;;5114151;28;1898;-60
2024/01/24 16:00:10;;;;;;;;;;;;;;;;;;5111356;28;1108;-63
2024/01/24 16:02:39;;;;;;;;;;;;;;;;;;5111099;28;1159;-61
2024/01/24 16:05:10;;;;;;;;;;;;;;;;;;5110922;28;1159;-62
2024/01/24 16:07:35;;;;;;;;;;;;;;;;;;5111995;28;1217;-63
2024/01/24 16:10:00;;;;;;;;;;;;;;;;;;5112112;28;1246;-64
2024/01/24 16:12:25;;;;;;;;;;;;;;;;;;5094893;28;1131;-63
2024/01/24 16:14:51;;;;;;;;;;;;;;;;;;5092429;28;1191;-60
2024/01/24 16:17:16;;;;;;;;;;;;;;;;;;5110978;28;1895;-60
2024/01/24 16:19:41;;;;;;;;;;;;;;;;;;5092036;28;1284;-60
2024/01/24 16:22:06;;;;;;;;;;;;;;;;;;5090370;28;1382;-60
2024/01/24 16:24:32;;;;;;;;;;;;;;;;;;5092563;28;1160;-60
2024/01/24 16:26:58;;;;;;;;;;;;;;;;;;5111801;28;1124;-61
2024/01/24 16:29:23;;;;;;;;;;;;;;;;;;5115293;28;817;-61
2024/01/24 16:31:48;;;;;;;;;;;;;;;;;;5119445;28;899;-61
2024/01/24 16:34:13;;;;;;;;;;;;;;;;;;5118846;28;895;-61
2024/01/24 16:36:39;;;;;;;;;;;;;;;;;;5118541;28;1943;-60
2024/01/24 16:39:04;;;;;;;;;;;;;;;;;;5118292;28;948;-60
2024/01/24 16:41:30;;;;;;;;;;;;;;;;;;5118780;28;1058;-59
2024/01/24 16:43:55;;;;;;;;;;;;;;;;;;5118254;28;911;-60
2024/01/24 16:46:20;;;;;;;;;;;;;;;;;;5118171;28;868;-59
2024/01/24 16:48:46;;;;;;;;;;;;;;;;;;5116373;28;718;-60
2024/01/24 16:51:11;;;;;;;;;;;;;;;;;;5118470;28;955;-60
2024/01/24 16:53:36;;;;;;;;;;;;;;;;;;5117847;28;871;-61
2024/01/24 16:56:02;;;;;;;;;;;;;;;;;;5118024;28;1255;-61
2024/01/24 16:58:27;;;;;;;;;;;;;;;;;;5117873;28;1870;-60
2024/01/24 17:00:52;;;;;;;;;;;;;;;;;;5117465;28;923;-59
2024/01/24 17:03:18;;;;;;;;;;;;;;;;;;5118001;28;836;-59
2024/01/24 17:05:43;;;;;;;;;;;;;;;;;;5116008;28;864;-59